Hlavní strana
METAR-TAF:

METAR-TAF

Letiště :

Pula, Chorvatsko

zeměpisná šířka: 44-54N, zeměpisná délka: 013-55E, výška: 63 m

Aktuální stav počasí

Zpráva byla vytvořena před 36 minutami, v 07:30 UTC
Východojihovýchodní vítr 7 kt, proměnlivý mezi východním a jihojihovýchodním
Teplota 27°C
Vlhkost vzduchu 54%
Tlak 1016 hPa
Viditelnost 10 km a více
Žádná oblačnost pod 1500 m, nevyskytují se cumulonimby.

METAR: LDPL 190730Z 11007KT 080V150 CAVOK 27/17 Q1016 NOSIG

Čas: 10:06 (08:06 UTC)

Předpověď počasí

Zpráva byla vytvořena před 2 hodinami a 41 minutami, v 05:25 UTC
Předpověď platná od 19 v 06 UTC do 20 v 06 UTC
Východní vítr 8 kt
Viditelnost 10 km a více
Žádná oblačnost pod 1500 m, nevyskytují se cumulonimby.
Změna
od 19 v 09 UTC do 19 v 11 UTC
Jihojihovýchodní vítr 8 kt
Pravděpodobnost 30% :
Dočasný
od 19 v 14 UTC do 19 v 18 UTC
Západojihozápadní vítr 8 kt

TAF: LDPL 190525Z 1906/2006 09008KT CAVOK TX31/1913Z TN20/2003Z BECMG 1909/1911 16008KT PROB30 TEMPO 1914/1918 24008KT

Stav a předpovědi počasí z více než 4 000 letišť (zprávy METAR a TAF).

Červené a žluté tečky na mapě představují dostupné meteorologické stanice.

Když kurzor umístíte na tečku, zobrazí se název stanice.

Pak kliknutím zobrazíte stav a předpověď počasí.

Chcete-li změnit mapu, kliknutím na zelené tlačítko se znaménkem +mapu přiblížíte, kliknutím na zelené tlačítko se znaménkem – mapu oddálíte a kliknutím na zelené šipky přejdete na sousední mapy.


METAR-TAF: